createdAt,value
2022-09-18T00:01:12.324Z,13.01
2022-09-18T00:03:40.424Z,12.58
2022-09-18T00:06:10.314Z,12.91
2022-09-18T00:08:39.619Z,12.91
2022-09-18T00:11:10.006Z,12.79
2022-09-18T00:13:39.345Z,12.37
2022-09-18T00:16:09.711Z,12.76
2022-09-18T00:18:39.519Z,12.40
2022-09-18T00:21:09.922Z,12.80
2022-09-18T00:23:38.879Z,12.98
2022-09-18T00:26:07.997Z,12.82
2022-09-18T00:28:36.980Z,12.71
2022-09-18T00:31:06.674Z,12.44
2022-09-18T00:33:35.838Z,12.38
2022-09-18T00:36:07.895Z,12.48
2022-09-18T00:38:36.441Z,12.26
2022-09-18T00:41:07.071Z,12.34
2022-09-18T00:43:36.010Z,12.44
2022-09-18T00:46:06.225Z,12.70
2022-09-18T00:48:51.362Z,12.75
2022-09-18T00:51:21.371Z,12.56
2022-09-18T00:53:53.505Z,12.41
2022-09-18T00:56:21.784Z,12.59
2022-09-18T00:58:50.834Z,12.70
2022-09-18T01:01:19.137Z,12.68
2022-09-18T01:03:47.492Z,12.38
2022-09-18T01:06:17.898Z,12.78
2022-09-18T01:08:57.220Z,12.90
2022-09-18T01:11:32.222Z,12.49
2022-09-18T01:14:23.574Z,12.89
2022-09-18T01:16:57.518Z,12.89
2022-09-18T01:19:38.447Z,12.55
2022-09-18T01:22:17.669Z,12.84
2022-09-18T01:25:00.031Z,12.93
2022-09-18T01:27:32.054Z,12.89
2022-09-18T01:30:04.828Z,13.24
2022-09-18T01:32:36.977Z,13.72
2022-09-18T01:35:18.687Z,13.53
2022-09-18T01:38:02.650Z,13.77
2022-09-18T01:40:34.382Z,13.86
2022-09-18T01:43:05.257Z,13.42
2022-09-18T01:45:36.995Z,13.67
2022-09-18T01:48:08.005Z,13.72
2022-09-18T01:50:40.145Z,14.02
2022-09-18T01:53:12.320Z,14.04
2022-09-18T01:55:42.279Z,13.78
2022-09-18T01:58:13.966Z,13.52
2022-09-18T02:00:45.881Z,14.19
2022-09-18T02:03:16.325Z,14.06
2022-09-18T02:05:47.654Z,13.80
2022-09-18T02:08:20.196Z,14.39
2022-09-18T02:10:51.772Z,13.38
2022-09-18T02:13:23.676Z,13.67
2022-09-18T02:15:58.437Z,13.82
2022-09-18T02:18:29.689Z,13.87
2022-09-18T02:20:58.612Z,14.53
2022-09-18T02:23:28.316Z,14.24
2022-09-18T02:25:58.991Z,14.36
2022-09-18T02:28:27.618Z,14.20
2022-09-18T02:30:58.483Z,14.30
2022-09-18T02:33:28.321Z,14.02
2022-09-18T02:36:28.765Z,14.33
2022-09-18T02:39:08.251Z,14.28
2022-09-18T02:41:45.086Z,14.54
2022-09-18T02:44:17.789Z,14.32
2022-09-18T02:46:55.467Z,14.13
2022-09-18T02:49:34.829Z,13.87
2022-09-18T02:52:06.474Z,14.43
2022-09-18T02:54:41.928Z,14.26
2022-09-18T02:57:12.064Z,14.37
2022-09-18T02:59:43.143Z,14.06
2022-09-18T03:02:13.403Z,13.97
2022-09-18T03:04:41.844Z,13.63
2022-09-18T03:07:10.184Z,13.77
2022-09-18T03:09:38.625Z,14.08
2022-09-18T03:12:07.189Z,14.45
2022-09-18T03:14:35.691Z,14.32
2022-09-18T03:17:04.490Z,14.07
2022-09-18T03:19:34.213Z,14.39
2022-09-18T03:22:02.717Z,14.32
2022-09-18T03:24:31.235Z,14.49
2022-09-18T03:26:59.643Z,14.43
2022-09-18T03:29:28.001Z,14.28
2022-09-18T03:31:56.504Z,13.99
2022-09-18T03:34:24.866Z,14.13
2022-09-18T03:36:54.599Z,14.18
2022-09-18T03:39:22.942Z,14.09
2022-09-18T03:41:51.301Z,14.06
2022-09-18T03:44:19.578Z,14.22
2022-09-18T03:46:47.961Z,14.12
2022-09-18T03:49:16.295Z,13.74
2022-09-18T03:51:44.639Z,14.17
2022-09-18T03:54:14.951Z,14.31
2022-09-18T03:56:43.229Z,14.20
2022-09-18T03:59:11.530Z,14.02
2022-09-18T04:01:39.813Z,13.98
2022-09-18T04:04:08.301Z,13.65
2022-09-18T04:06:36.935Z,13.96
2022-09-18T04:09:05.463Z,13.85
2022-09-18T04:11:35.162Z,13.80
2022-09-18T04:14:03.642Z,13.70
2022-09-18T04:16:32.053Z,13.94
2022-09-18T04:19:00.749Z,13.61
2022-09-18T04:21:29.065Z,14.01
2022-09-18T04:23:57.699Z,13.86
2022-09-18T04:26:26.438Z,13.90
2022-09-18T04:28:56.210Z,13.83
2022-09-18T04:31:24.578Z,13.97
2022-09-18T04:33:52.864Z,14.02
2022-09-18T04:36:21.140Z,13.70
2022-09-18T04:38:49.437Z,13.83
2022-09-18T04:41:17.772Z,13.44
2022-09-18T04:43:46.104Z,14.38
2022-09-18T04:46:15.986Z,13.84
2022-09-18T04:48:48.578Z,13.95
2022-09-18T04:51:17.040Z,13.58
2022-09-18T04:53:45.365Z,13.71
2022-09-18T04:56:13.762Z,13.48
2022-09-18T04:58:42.027Z,13.65
2022-09-18T05:01:10.495Z,14.05
2022-09-18T05:03:40.209Z,13.91
2022-09-18T05:06:08.702Z,14.16
2022-09-18T05:08:37.306Z,14.00
2022-09-18T05:11:05.991Z,13.47
2022-09-18T05:13:34.319Z,14.16
2022-09-18T05:16:03.159Z,13.73
2022-09-18T05:18:31.494Z,14.01
2022-09-18T05:21:04.039Z,14.20
2022-09-18T05:23:33.316Z,14.32
2022-09-18T05:26:01.973Z,14.20
2022-09-18T05:28:30.275Z,13.87
2022-09-18T05:31:00.698Z,14.15
2022-09-18T05:33:29.514Z,14.53
2022-09-18T05:35:58.815Z,14.58
2022-09-18T05:38:28.598Z,14.91
2022-09-18T05:41:00.759Z,14.54
2022-09-18T05:43:29.661Z,14.38
2022-09-18T05:45:58.393Z,14.10
2022-09-18T05:48:26.726Z,14.41
2022-09-18T05:50:55.162Z,14.19
2022-09-18T05:53:23.619Z,13.92
2022-09-18T05:55:53.249Z,14.66
2022-09-18T05:58:22.126Z,14.23
2022-09-18T06:00:52.073Z,14.87
2022-09-18T06:03:20.466Z,14.05
2022-09-18T06:05:53.374Z,14.67
2022-09-18T06:08:22.695Z,14.20
2022-09-18T06:10:52.036Z,14.34
2022-09-18T06:13:21.722Z,15.04
2022-09-18T06:15:52.275Z,15.15
2022-09-18T06:18:20.813Z,15.10
2022-09-18T06:20:53.753Z,15.13
2022-09-18T06:23:23.030Z,15.08
2022-09-18T06:25:58.203Z,15.28
2022-09-18T06:28:28.594Z,15.39
2022-09-18T06:30:56.909Z,14.71
2022-09-18T06:33:25.448Z,14.59
2022-09-18T06:35:53.752Z,15.06
2022-09-18T06:38:22.072Z,14.87
2022-09-18T06:40:50.974Z,14.51
2022-09-18T06:43:19.706Z,14.74
2022-09-18T06:45:53.595Z,15.21
2022-09-18T06:48:23.141Z,15.02
2022-09-18T06:50:54.864Z,15.13
2022-09-18T06:53:23.692Z,14.88
2022-09-18T06:55:52.092Z,14.68
2022-09-18T06:58:21.136Z,15.50
2022-09-18T07:00:49.505Z,15.40
2022-09-18T07:03:19.258Z,14.47
2022-09-18T07:05:47.624Z,15.08
2022-09-18T07:08:16.126Z,14.43
2022-09-18T07:10:44.540Z,14.86
2022-09-18T07:13:12.862Z,15.39
2022-09-18T07:15:41.216Z,14.60
2022-09-18T07:18:09.616Z,15.08
2022-09-18T07:20:39.263Z,14.85
2022-09-18T07:23:07.570Z,14.93
2022-09-18T07:25:35.912Z,15.14
2022-09-18T07:28:07.750Z,15.33
2022-09-18T07:30:36.241Z,15.72
2022-09-18T07:33:05.494Z,15.47
2022-09-18T07:35:34.138Z,15.00
2022-09-18T07:38:05.967Z,15.36
2022-09-18T07:40:34.753Z,15.12
2022-09-18T07:43:05.661Z,15.16
2022-09-18T07:45:34.296Z,15.77
2022-09-18T07:48:03.141Z,15.64
2022-09-18T07:50:31.471Z,15.84
2022-09-18T07:53:02.188Z,15.52
2022-09-18T07:55:32.401Z,15.34
2022-09-18T07:58:02.388Z,14.89
2022-09-18T08:00:33.323Z,15.82
2022-09-18T08:03:05.783Z,16.17
2022-09-18T08:05:34.344Z,15.86
2022-09-18T08:08:05.854Z,14.98
2022-09-18T08:10:36.943Z,15.33
2022-09-18T08:13:05.396Z,15.11
2022-09-18T08:15:34.786Z,15.22
2022-09-18T08:18:03.071Z,15.25
2022-09-18T08:20:31.906Z,15.26
2022-09-18T08:23:00.184Z,15.05
2022-09-18T08:25:28.534Z,15.75
2022-09-18T08:28:01.687Z,15.19
2022-09-18T08:30:30.730Z,14.53
2022-09-18T08:33:00.153Z,15.16
2022-09-18T08:35:28.971Z,15.10
2022-09-18T08:37:58.057Z,15.49
2022-09-18T08:40:37.894Z,15.82
2022-09-18T08:43:13.423Z,15.71
2022-09-18T08:45:52.907Z,15.81
2022-09-18T08:48:23.318Z,15.44
2022-09-18T08:50:56.326Z,15.85
2022-09-18T08:53:28.186Z,15.40
2022-09-18T08:55:57.405Z,15.27
2022-09-18T08:58:31.841Z,16.22
2022-09-18T09:01:03.034Z,15.90
2022-09-18T09:03:35.891Z,15.47
2022-09-18T09:06:10.340Z,16.02
2022-09-18T09:09:00.381Z,16.34
2022-09-18T09:11:35.156Z,16.09
2022-09-18T09:14:34.210Z,15.88
2022-09-18T09:17:18.474Z,16.35
2022-09-18T09:19:54.228Z,15.98
2022-09-18T09:22:29.958Z,16.35
2022-09-18T09:25:06.564Z,16.41
2022-09-18T09:27:38.343Z,16.67
2022-09-18T09:30:15.709Z,16.41
2022-09-18T09:32:46.459Z,16.37
2022-09-18T09:35:25.043Z,17.11
2022-09-18T09:37:53.886Z,17.11
2022-09-18T09:40:32.375Z,16.96
2022-09-18T09:43:04.814Z,17.05
2022-09-18T09:45:42.401Z,17.46
2022-09-18T09:48:15.788Z,16.98
2022-09-18T09:50:49.822Z,17.52
2022-09-18T09:53:18.238Z,16.87
2022-09-18T09:55:54.156Z,17.32
2022-09-18T09:58:33.837Z,17.09
2022-09-18T10:01:08.216Z,17.05
2022-09-18T10:03:43.912Z,16.41
2022-09-18T10:06:21.501Z,16.96
2022-09-18T10:08:52.916Z,17.15
2022-09-18T10:11:21.580Z,17.40
2022-09-18T10:13:52.056Z,17.12
2022-09-18T10:16:24.982Z,17.62
2022-09-18T10:18:53.387Z,16.73
2022-09-18T10:21:23.292Z,17.02
2022-09-18T10:23:55.885Z,16.27
2022-09-18T10:26:27.341Z,16.60
2022-09-18T10:28:55.679Z,16.83
2022-09-18T10:31:48.525Z,16.34
2022-09-18T10:34:35.874Z,17.23
2022-09-18T10:37:05.789Z,16.89
2022-09-18T10:39:36.433Z,16.81
2022-09-18T10:42:06.174Z,16.68
2022-09-18T10:44:36.388Z,17.05
2022-09-18T10:47:08.447Z,17.13
2022-09-18T10:49:40.827Z,17.23
2022-09-18T10:52:28.510Z,17.79
2022-09-18T10:54:59.665Z,17.84
2022-09-18T10:57:32.541Z,16.48
2022-09-18T11:00:01.295Z,17.26
2022-09-18T11:02:41.563Z,17.21
2022-09-18T11:05:17.061Z,16.88
2022-09-18T11:07:48.797Z,17.02
2022-09-18T11:10:17.828Z,17.17
2022-09-18T11:12:53.497Z,17.08
2022-09-18T11:15:26.860Z,17.18
2022-09-18T11:17:58.581Z,17.37
2022-09-18T11:20:30.035Z,16.73
2022-09-18T11:23:16.105Z,16.32
2022-09-18T11:25:45.831Z,16.34
2022-09-18T11:28:23.556Z,16.36
2022-09-18T11:30:59.258Z,16.74
2022-09-18T11:33:30.913Z,16.67
2022-09-18T11:36:01.950Z,16.98
2022-09-18T11:38:30.298Z,17.14
2022-09-18T11:40:59.814Z,16.71
2022-09-18T11:43:30.792Z,17.30
2022-09-18T11:46:05.353Z,17.88
2022-09-18T11:48:38.676Z,17.63
2022-09-18T11:51:12.729Z,18.01
2022-09-18T11:53:43.919Z,17.92
2022-09-18T11:56:15.458Z,18.61
2022-09-18T11:58:46.909Z,18.47
2022-09-18T12:01:25.061Z,18.56
2022-09-18T12:03:57.370Z,18.71
2022-09-18T12:06:30.403Z,17.78
2022-09-18T12:09:02.315Z,18.05
2022-09-18T12:11:37.532Z,17.96
2022-09-18T12:14:12.864Z,18.78
2022-09-18T12:16:45.959Z,18.12
2022-09-18T12:19:20.096Z,17.97
2022-09-18T12:21:54.158Z,17.56
2022-09-18T12:24:22.707Z,17.52
2022-09-18T12:26:59.003Z,17.29
2022-09-18T12:29:37.261Z,18.00
2022-09-18T12:32:15.843Z,18.35
2022-09-18T12:34:49.761Z,18.69
2022-09-18T12:37:31.558Z,18.73
2022-09-18T12:40:13.131Z,18.77
2022-09-18T12:42:48.130Z,18.00
2022-09-18T12:45:59.731Z,17.97
2022-09-18T12:48:41.894Z,18.32
2022-09-18T12:51:21.907Z,18.11
2022-09-18T12:53:56.522Z,18.41
2022-09-18T12:56:36.106Z,18.41
2022-09-18T12:59:22.621Z,18.25
2022-09-18T13:01:53.670Z,18.80
2022-09-18T13:04:27.445Z,18.16
2022-09-18T13:06:59.611Z,19.79
2022-09-18T13:09:31.334Z,19.11
2022-09-18T13:12:02.644Z,19.49
2022-09-18T13:14:36.995Z,20.53
2022-09-18T13:17:09.432Z,19.64
2022-09-18T13:19:41.131Z,19.84
2022-09-18T13:22:16.262Z,18.50
2022-09-18T13:24:47.120Z,18.84
2022-09-18T13:27:19.776Z,18.56
2022-09-18T13:29:50.026Z,18.53
2022-09-18T13:32:20.335Z,19.10
2022-09-18T13:34:51.650Z,19.45
2022-09-18T13:37:23.386Z,19.38
2022-09-18T13:40:09.220Z,19.42
2022-09-18T13:42:40.831Z,20.12
2022-09-18T13:45:25.921Z,20.13
2022-09-18T13:48:05.685Z,20.20
2022-09-18T13:50:35.557Z,20.13
2022-09-18T13:53:06.196Z,19.68
2022-09-18T13:55:49.022Z,19.48
2022-09-18T13:58:36.987Z,20.01
2022-09-18T14:01:07.211Z,20.27
2022-09-18T14:03:38.867Z,19.97
2022-09-18T14:06:52.647Z,20.54
2022-09-18T14:09:50.353Z,19.19
2022-09-18T14:12:19.481Z,19.49
2022-09-18T14:14:58.769Z,19.58
2022-09-18T14:17:27.253Z,19.25
2022-09-18T14:19:59.590Z,19.23
2022-09-18T14:22:32.070Z,19.47
2022-09-18T14:25:03.485Z,19.44
2022-09-18T14:27:57.030Z,18.93
2022-09-18T14:30:26.873Z,19.08
2022-09-18T14:33:03.109Z,19.75
2022-09-18T14:35:37.050Z,19.19
2022-09-18T14:38:17.608Z,19.65
2022-09-18T14:40:50.804Z,19.95
2022-09-18T14:43:22.127Z,19.41
2022-09-18T14:45:51.572Z,19.09
2022-09-18T14:48:28.972Z,19.61
2022-09-18T14:51:02.862Z,19.20
2022-09-18T14:53:31.793Z,19.83
2022-09-18T14:56:04.341Z,19.52
2022-09-18T14:58:35.980Z,19.55
2022-09-18T15:01:05.482Z,19.27
2022-09-18T15:03:37.417Z,19.12
2022-09-18T15:06:11.631Z,19.35
2022-09-18T15:08:40.061Z,19.18
2022-09-18T15:11:14.871Z,19.46
2022-09-18T15:13:43.797Z,19.32
2022-09-18T15:16:20.032Z,19.76
2022-09-18T15:18:50.455Z,19.64
2022-09-18T15:21:23.020Z,18.41
2022-09-18T15:23:51.778Z,19.24
2022-09-18T15:26:24.911Z,19.12
2022-09-18T15:28:54.608Z,18.92
2022-09-18T15:31:24.150Z,18.38
2022-09-18T15:33:55.716Z,18.81
2022-09-18T15:36:27.573Z,18.50
2022-09-18T15:38:57.256Z,19.16
2022-09-18T15:41:35.897Z,18.88
2022-09-18T15:44:04.831Z,18.85
2022-09-18T15:46:34.733Z,18.94
2022-09-18T15:49:04.423Z,18.18
2022-09-18T15:51:34.683Z,18.13
2022-09-18T15:54:05.679Z,18.44
2022-09-18T15:56:35.849Z,18.48
2022-09-18T15:59:05.657Z,18.48
2022-09-18T16:01:36.163Z,18.22
2022-09-18T16:04:09.206Z,18.82
2022-09-18T16:06:45.286Z,18.52
2022-09-18T16:09:25.073Z,18.09
2022-09-18T16:11:54.791Z,18.22
2022-09-18T16:14:45.544Z,18.20
2022-09-18T16:17:36.080Z,18.49
2022-09-18T16:20:28.216Z,17.92
2022-09-18T16:22:59.881Z,18.30
2022-09-18T16:25:30.084Z,18.58
2022-09-18T16:28:00.654Z,18.06
2022-09-18T16:30:29.860Z,18.36
2022-09-18T16:33:03.332Z,18.06
2022-09-18T16:35:31.718Z,18.51
2022-09-18T16:37:59.969Z,18.17
2022-09-18T16:40:31.295Z,18.15
2022-09-18T16:43:01.046Z,18.37
2022-09-18T16:45:29.455Z,18.70
2022-09-18T16:48:00.662Z,17.79
2022-09-18T16:50:29.262Z,18.31
2022-09-18T16:53:01.397Z,18.59
2022-09-18T16:55:31.449Z,18.43
2022-09-18T16:58:01.105Z,18.37
2022-09-18T17:00:29.490Z,18.15
2022-09-18T17:02:57.896Z,18.36
2022-09-18T17:05:26.274Z,18.01
2022-09-18T17:07:54.641Z,18.16
2022-09-18T17:10:23.034Z,17.86
2022-09-18T17:12:51.344Z,17.96
2022-09-18T17:15:21.306Z,17.85
2022-09-18T17:17:49.815Z,17.95
2022-09-18T17:20:18.899Z,18.58
2022-09-18T17:22:47.787Z,18.18
2022-09-18T17:25:16.546Z,18.06
2022-09-18T17:27:45.031Z,17.89
2022-09-18T17:30:13.643Z,18.15
2022-09-18T17:32:43.502Z,17.79
2022-09-18T17:35:13.385Z,17.82
2022-09-18T17:37:41.755Z,18.39
2022-09-18T17:40:10.722Z,17.64
2022-09-18T17:42:39.218Z,17.88
2022-09-18T17:45:08.440Z,18.26
2022-09-18T17:47:36.959Z,18.54
2022-09-18T17:50:08.865Z,18.19
2022-09-18T17:52:37.388Z,17.90
2022-09-18T17:55:06.520Z,18.03
2022-09-18T17:57:36.936Z,17.53
2022-09-18T18:00:06.426Z,17.55
2022-09-18T18:02:34.747Z,16.94
2022-09-18T18:05:03.808Z,17.46
2022-09-18T18:07:33.496Z,17.87
2022-09-18T18:10:02.030Z,17.73
2022-09-18T18:12:30.315Z,17.25
2022-09-18T18:14:58.694Z,17.45
2022-09-18T18:17:27.015Z,17.76
2022-09-18T18:19:55.622Z,17.56
2022-09-18T18:22:23.963Z,17.40
2022-09-18T18:24:53.646Z,17.76
2022-09-18T18:27:22.391Z,17.33
2022-09-18T18:29:53.612Z,17.69
2022-09-18T18:32:22.929Z,17.45
2022-09-18T18:34:51.259Z,17.50
2022-09-18T18:37:20.512Z,17.39
2022-09-18T18:39:49.104Z,17.91
2022-09-18T18:42:19.805Z,17.78
2022-09-18T18:44:48.028Z,17.55
2022-09-18T18:47:17.563Z,17.22
2022-09-18T18:49:45.842Z,17.53
2022-09-18T18:52:14.206Z,17.24
2022-09-18T18:54:42.565Z,17.61
2022-09-18T18:57:11.678Z,17.96
2022-09-18T18:59:42.133Z,17.87
2022-09-18T19:02:11.378Z,17.78
2022-09-18T19:04:41.462Z,17.61
2022-09-18T19:07:10.805Z,17.60
2022-09-18T19:09:39.128Z,17.50
2022-09-18T19:12:07.729Z,17.32
2022-09-18T19:14:38.043Z,17.69
2022-09-18T19:17:09.938Z,17.39
2022-09-18T19:19:38.457Z,17.29
2022-09-18T19:22:16.569Z,16.92
2022-09-18T19:24:45.117Z,17.35
2022-09-18T19:27:13.473Z,17.35
2022-09-18T19:29:42.348Z,17.76
2022-09-18T19:32:11.975Z,17.47
2022-09-18T19:34:40.267Z,17.89
2022-09-18T19:37:11.816Z,17.73
2022-09-18T19:39:41.434Z,17.96
2022-09-18T19:42:12.367Z,17.43
2022-09-18T19:44:43.108Z,17.55
2022-09-18T19:47:19.717Z,17.62
2022-09-18T19:49:49.131Z,17.81
2022-09-18T19:52:19.076Z,18.00
2022-09-18T19:54:47.843Z,16.64
2022-09-18T19:57:16.356Z,17.17
2022-09-18T19:59:45.059Z,17.69
2022-09-18T20:02:17.280Z,17.28
2022-09-18T20:04:45.626Z,17.35
2022-09-18T20:07:14.573Z,17.32
2022-09-18T20:09:42.927Z,17.69
2022-09-18T20:12:11.578Z,17.82
2022-09-18T20:14:39.853Z,17.29
2022-09-18T20:17:08.304Z,17.94
2022-09-18T20:19:38.112Z,17.48
2022-09-18T20:22:06.567Z,16.87
2022-09-18T20:24:35.030Z,17.84
2022-09-18T20:27:03.388Z,17.69
2022-09-18T20:29:31.694Z,17.39
2022-09-18T20:31:59.950Z,17.85
2022-09-18T20:34:28.272Z,17.20
2022-09-18T20:36:58.787Z,17.31
2022-09-18T20:39:27.189Z,17.31
2022-09-18T20:41:57.338Z,17.14
2022-09-18T20:44:25.839Z,17.67
2022-09-18T20:46:56.688Z,17.07
2022-09-18T20:49:25.497Z,17.53
2022-09-18T20:51:54.458Z,17.63
2022-09-18T20:54:24.398Z,16.81
2022-09-18T20:56:52.917Z,17.86
2022-09-18T20:59:21.382Z,17.38
2022-09-18T21:01:50.036Z,17.06
2022-09-18T21:04:20.264Z,17.17
2022-09-18T21:06:56.089Z,17.11
2022-09-18T21:09:27.753Z,16.57
2022-09-18T21:11:57.339Z,17.26
2022-09-18T21:14:27.361Z,16.83
2022-09-18T21:16:55.986Z,16.72
2022-09-18T21:19:26.147Z,16.71
2022-09-18T21:21:55.010Z,16.92
2022-09-18T21:24:23.528Z,16.77
2022-09-18T21:26:53.264Z,16.78
2022-09-18T21:29:23.302Z,16.57
2022-09-18T21:31:54.281Z,17.26
2022-09-18T21:34:24.742Z,16.85
2022-09-18T21:36:56.441Z,16.88
2022-09-18T21:39:25.893Z,17.15
2022-09-18T21:41:56.275Z,16.83
2022-09-18T21:44:27.198Z,16.70
2022-09-18T21:46:57.170Z,16.58
2022-09-18T21:49:26.251Z,16.46
2022-09-18T21:51:55.771Z,16.46
2022-09-18T21:54:25.051Z,16.25
2022-09-18T21:56:55.356Z,16.58
2022-09-18T21:59:25.813Z,16.23
2022-09-18T22:01:55.416Z,16.46
2022-09-18T22:04:26.170Z,16.18
2022-09-18T22:06:57.130Z,16.81
2022-09-18T22:09:27.273Z,16.60
2022-09-18T22:11:57.756Z,16.80
2022-09-18T22:14:28.663Z,16.72
2022-09-18T22:16:57.036Z,16.21
2022-09-18T22:19:26.008Z,16.39
2022-09-18T22:21:54.408Z,16.13
2022-09-18T22:24:24.726Z,15.94
2022-09-18T22:26:55.741Z,16.38
2022-09-18T22:29:27.067Z,16.56
2022-09-18T22:31:55.549Z,15.89
2022-09-18T22:34:26.407Z,15.76
2022-09-18T22:36:55.751Z,15.87
2022-09-18T22:39:24.112Z,16.25
2022-09-18T22:41:52.776Z,16.15
2022-09-18T22:44:21.917Z,16.01
2022-09-18T22:46:53.090Z,16.06
2022-09-18T22:49:22.652Z,16.05
2022-09-18T22:51:51.577Z,16.33
2022-09-18T22:54:23.794Z,15.72
2022-09-18T22:56:52.811Z,15.76
2022-09-18T22:59:22.516Z,15.95
2022-09-18T23:01:54.211Z,16.75
2022-09-18T23:04:23.661Z,16.73
2022-09-18T23:06:52.345Z,16.20
2022-09-18T23:09:20.872Z,15.48
2022-09-18T23:11:50.573Z,15.55
2022-09-18T23:14:20.480Z,15.63
2022-09-18T23:16:50.021Z,15.34
2022-09-18T23:19:22.470Z,14.96
2022-09-18T23:21:51.640Z,14.45
2022-09-18T23:24:20.154Z,14.80
2022-09-18T23:26:49.830Z,14.52
2022-09-18T23:29:21.358Z,14.41
2022-09-18T23:31:52.920Z,14.92
2022-09-18T23:34:24.688Z,14.90
2022-09-18T23:36:54.178Z,15.06
2022-09-18T23:39:24.391Z,14.87
2022-09-18T23:41:52.963Z,14.60
2022-09-18T23:44:23.179Z,14.57
2022-09-18T23:46:51.703Z,14.91
2022-09-18T23:49:23.817Z,14.76
2022-09-18T23:51:54.798Z,14.38
2022-09-18T23:54:24.502Z,14.75
2022-09-18T23:56:53.409Z,14.43
2022-09-18T23:59:23.430Z,14.45
